Página principal
METAR-TAF:

METAR-TAF

Aeroportos :

Aeroporto Internacional de Bujumbura

Bujumbura, Burundi

latitude: 03-19S, longitude: 029-19E, altura: 782 m

METAR: em falta

Hora: 00:38 (22:38 UTC)

Previsão

O boletim foi feito há 5 horas e 38 minutos, às 17:00 UTC
Previsão válida de 22 às 18 UTC a 23 às 24 UTC
Vento kt de norte
Visibilidade 10 km ou mais
sem nuvens abaixo de 1500 metros e sem cumulonimbus
Tornando-se
de 23 às 02 UTC a 23 às 04 UTC
Vento 3 kt de norte
Visibilidade: 5000 m
bruma
Tornando-se
de 23 às 07 UTC a 23 às 09 UTC
Vento 10 kt de sul com rajadas de 20 kt
Visibilidade: 7000 m
Poucas nuvensa uma altura de 3000 ft
Tornando-se
de 23 às 16 UTC a 23 às 18 UTC
Vento kt de norte
Visibilidade 10 km ou mais
sem nuvens abaixo de 1500 metros e sem cumulonimbus

TAF: HBBA 221700Z 2218/2324 00000KT CAVOK BECMG 2302/2304 36003KT 5000 HZ NSC BECMG 2307/2309 18010G20KT 7000 FEW030 BECMG 2316/2318 00000KT CAVOK

Observações e previsões do tempo de mais de 4000 aeroportos (mensagens METAR e TAF).

As estações disponíveis são os pontos amarelos e vermelhos sobre o mapa.

Mova o rato sobre o mapa para ver o nome da estação.

Depois clique no ponto para visualizar as observações e previsões meteorológicas.

Para alterar o mapa : clique nos botões verdes com uma cruz preta para aumentar o zoom; no botão verde com uma pitada de zoom; ou nas setas verdes para mapas adjacentes.


METAR-TAF: